sensor_id;sensor_type;location;lat;lon;timestamp;P1;durP1;ratioP1;P2;durP2;ratioP2
52102;SDS011;38101;53.126;6.878;2023-12-20T15:29:46;6.30;;;2.35;;
52102;SDS011;38101;53.126;6.878;2023-12-20T15:32:14;4.32;;;2.10;;
52102;SDS011;38101;53.126;6.878;2023-12-20T15:34:41;7.57;;;2.15;;
52102;SDS011;38101;53.126;6.878;2023-12-20T15:37:07;6.03;;;2.03;;
52102;SDS011;38101;53.126;6.878;2023-12-20T15:39:32;8.23;;;2.10;;
52102;SDS011;38101;53.126;6.878;2023-12-20T15:41:58;5.22;;;1.70;;
52102;SDS011;38101;53.126;6.878;2023-12-20T15:44:23;8.77;;;2.00;;
52102;SDS011;38101;53.126;6.878;2023-12-20T15:46:50;6.35;;;2.17;;
52102;SDS011;38101;53.126;6.878;2023-12-20T15:49:16;6.18;;;2.38;;
52102;SDS011;38101;53.126;6.878;2023-12-20T15:51:44;8.18;;;2.80;;
52102;SDS011;38101;53.126;6.878;2023-12-20T15:54:10;7.05;;;2.13;;
52102;SDS011;38101;53.126;6.878;2023-12-20T15:56:36;8.50;;;1.90;;
52102;SDS011;38101;53.126;6.878;2023-12-20T15:59:05;5.50;;;2.08;;
52102;SDS011;38101;53.126;6.878;2023-12-20T16:01:30;5.28;;;2.03;;
52102;SDS011;38101;53.126;6.878;2023-12-20T16:03:56;5.25;;;1.70;;
52102;SDS011;38101;53.126;6.878;2023-12-20T16:06:22;9.13;;;2.42;;
52102;SDS011;38101;53.126;6.878;2023-12-20T16:08:48;11.73;;;3.25;;
52102;SDS011;38101;53.126;6.878;2023-12-20T16:11:14;7.75;;;2.40;;
52102;SDS011;38101;53.126;6.878;2023-12-20T16:13:40;10.15;;;2.58;;
52102;SDS011;38101;53.126;6.878;2023-12-20T16:16:06;7.90;;;2.45;;
52102;SDS011;38101;53.126;6.878;2023-12-20T16:18:31;7.10;;;3.03;;
52102;SDS011;38101;53.126;6.878;2023-12-20T16:20:58;10.50;;;2.78;;
52102;SDS011;38101;53.126;6.878;2023-12-20T16:23:26;10.40;;;2.60;;
52102;SDS011;38101;53.126;6.878;2023-12-20T16:25:52;6.07;;;2.42;;
52102;SDS011;38101;53.126;6.878;2023-12-20T16:28:18;9.93;;;2.63;;
52102;SDS011;38101;53.126;6.878;2023-12-20T16:30:44;7.57;;;2.60;;
52102;SDS011;38101;53.126;6.878;2023-12-20T16:33:10;8.80;;;2.60;;
52102;SDS011;38101;53.126;6.878;2023-12-20T16:35:36;12.07;;;3.28;;
52102;SDS011;38101;53.126;6.878;2023-12-20T16:38:02;6.57;;;2.33;;
52102;SDS011;38101;53.126;6.878;2023-12-20T16:40:28;10.43;;;3.15;;
52102;SDS011;38101;53.126;6.878;2023-12-20T16:42:54;13.35;;;3.13;;
52102;SDS011;38101;53.126;6.878;2023-12-20T16:45:23;9.73;;;2.40;;
52102;SDS011;38101;53.126;6.878;2023-12-20T16:47:49;9.60;;;2.70;;
52102;SDS011;38101;53.126;6.878;2023-12-20T16:50:15;7.68;;;2.67;;
52102;SDS011;38101;53.126;6.878;2023-12-20T16:52:41;8.38;;;2.80;;
52102;SDS011;38101;53.126;6.878;2023-12-20T16:55:10;6.68;;;2.58;;
52102;SDS011;38101;53.126;6.878;2023-12-20T16:57:36;12.07;;;2.78;;
52102;SDS011;38101;53.126;6.878;2023-12-20T17:00:04;14.55;;;4.03;;
52102;SDS011;38101;53.126;6.878;2023-12-20T17:02:31;9.48;;;3.35;;
52102;SDS011;38101;53.126;6.878;2023-12-20T17:04:57;11.05;;;3.20;;
52102;SDS011;38101;53.126;6.878;2023-12-20T17:07:23;11.50;;;3.50;;
52102;SDS011;38101;53.126;6.878;2023-12-20T17:09:50;9.77;;;2.92;;
52102;SDS011;38101;53.126;6.878;2023-12-20T17:12:16;7.57;;;2.92;;
52102;SDS011;38101;53.126;6.878;2023-12-20T17:14:41;11.00;;;2.80;;
52102;SDS011;38101;53.126;6.878;2023-12-20T17:17:07;10.18;;;3.28;;
52102;SDS011;38101;53.126;6.878;2023-12-20T17:19:33;9.95;;;3.47;;
52102;SDS011;38101;53.126;6.878;2023-12-20T17:21:59;10.00;;;3.20;;
52102;SDS011;38101;53.126;6.878;2023-12-20T17:24:26;9.82;;;3.17;;
52102;SDS011;38101;53.126;6.878;2023-12-20T17:26:52;9.50;;;3.15;;
52102;SDS011;38101;53.126;6.878;2023-12-20T17:29:18;13.10;;;3.33;;
52102;SDS011;38101;53.126;6.878;2023-12-20T17:31:44;7.97;;;3.70;;
52102;SDS011;38101;53.126;6.878;2023-12-20T17:34:10;8.55;;;3.20;;
52102;SDS011;38101;53.126;6.878;2023-12-20T17:36:37;9.40;;;3.30;;
52102;SDS011;38101;53.126;6.878;2023-12-20T17:39:03;8.77;;;3.15;;
52102;SDS011;38101;53.126;6.878;2023-12-20T17:41:30;11.40;;;3.72;;
52102;SDS011;38101;53.126;6.878;2023-12-20T17:43:56;9.48;;;3.22;;
52102;SDS011;38101;53.126;6.878;2023-12-20T17:46:21;12.10;;;4.38;;
52102;SDS011;38101;53.126;6.878;2023-12-20T17:48:47;12.27;;;3.80;;
52102;SDS011;38101;53.126;6.878;2023-12-20T17:51:13;10.65;;;4.18;;
52102;SDS011;38101;53.126;6.878;2023-12-20T17:53:39;11.77;;;4.38;;
52102;SDS011;38101;53.126;6.878;2023-12-20T17:56:05;10.65;;;3.67;;
52102;SDS011;38101;53.126;6.878;2023-12-20T17:58:31;14.38;;;4.47;;
52102;SDS011;38101;53.126;6.878;2023-12-20T18:00:58;13.80;;;4.47;;
52102;SDS011;38101;53.126;6.878;2023-12-20T18:03:24;14.18;;;4.72;;
52102;SDS011;38101;53.126;6.878;2023-12-20T18:05:50;10.10;;;4.13;;
52102;SDS011;38101;53.126;6.878;2023-12-20T18:08:16;10.85;;;4.85;;
52102;SDS011;38101;53.126;6.878;2023-12-20T18:10:41;13.32;;;4.28;;
52102;SDS011;38101;53.126;6.878;2023-12-20T18:13:07;8.05;;;3.97;;
52102;SDS011;38101;53.126;6.878;2023-12-20T18:15:33;13.07;;;4.38;;
52102;SDS011;38101;53.126;6.878;2023-12-20T18:17:59;11.50;;;4.07;;
52102;SDS011;38101;53.126;6.878;2023-12-20T18:20:25;9.70;;;3.85;;
52102;SDS011;38101;53.126;6.878;2023-12-20T18:22:50;10.77;;;3.70;;
52102;SDS011;38101;53.126;6.878;2023-12-20T18:25:16;8.85;;;3.15;;
52102;SDS011;38101;53.126;6.878;2023-12-20T18:27:42;7.13;;;3.20;;
52102;SDS011;38101;53.126;6.878;2023-12-20T18:30:08;8.95;;;3.20;;
52102;SDS011;38101;53.126;6.878;2023-12-20T18:32:34;7.85;;;3.05;;
52102;SDS011;38101;53.126;6.878;2023-12-20T18:35:00;7.35;;;3.10;;
52102;SDS011;38101;53.126;6.878;2023-12-20T18:37:27;7.47;;;3.25;;
52102;SDS011;38101;53.126;6.878;2023-12-20T18:39:54;6.85;;;3.53;;
52102;SDS011;38101;53.126;6.878;2023-12-20T18:42:20;6.50;;;2.55;;
52102;SDS011;38101;53.126;6.878;2023-12-20T18:44:46;5.07;;;2.33;;
52102;SDS011;38101;53.126;6.878;2023-12-20T18:47:12;4.68;;;2.17;;
52102;SDS011;38101;53.126;6.878;2023-12-20T18:49:38;5.05;;;2.20;;
52102;SDS011;38101;53.126;6.878;2023-12-20T18:52:04;4.38;;;2.00;;
52102;SDS011;38101;53.126;6.878;2023-12-20T18:54:34;7.32;;;2.35;;
52102;SDS011;38101;53.126;6.878;2023-12-20T18:57:01;3.50;;;1.80;;
52102;SDS011;38101;53.126;6.878;2023-12-20T18:59:27;4.18;;;1.85;;
52102;SDS011;38101;53.126;6.878;2023-12-20T19:01:53;2.42;;;1.63;;
52102;SDS011;38101;53.126;6.878;2023-12-20T19:04:21;4.32;;;1.90;;
52102;SDS011;38101;53.126;6.878;2023-12-20T19:06:46;2.40;;;1.50;;
52102;SDS011;38101;53.126;6.878;2023-12-20T19:09:13;2.92;;;1.70;;
52102;SDS011;38101;53.126;6.878;2023-12-20T19:11:40;3.22;;;1.70;;
52102;SDS011;38101;53.126;6.878;2023-12-20T19:14:06;2.63;;;1.90;;
52102;SDS011;38101;53.126;6.878;2023-12-20T19:16:36;3.55;;;2.10;;
52102;SDS011;38101;53.126;6.878;2023-12-20T19:19:02;3.70;;;2.10;;
52102;SDS011;38101;53.126;6.878;2023-12-20T19:21:28;3.42;;;2.00;;
52102;SDS011;38101;53.126;6.878;2023-12-20T19:23:54;4.07;;;2.05;;
52102;SDS011;38101;53.126;6.878;2023-12-20T19:26:19;4.75;;;1.98;;
52102;SDS011;38101;53.126;6.878;2023-12-20T19:28:45;4.05;;;2.00;;
52102;SDS011;38101;53.126;6.878;2023-12-20T19:31:11;4.05;;;2.10;;
52102;SDS011;38101;53.126;6.878;2023-12-20T19:33:38;2.70;;;1.90;;
52102;SDS011;38101;53.126;6.878;2023-12-20T19:36:05;3.90;;;1.75;;
52102;SDS011;38101;53.126;6.878;2023-12-20T19:38:31;5.63;;;1.92;;
52102;SDS011;38101;53.126;6.878;2023-12-20T19:40:59;2.72;;;1.77;;
52102;SDS011;38101;53.126;6.878;2023-12-20T19:43:25;3.28;;;1.75;;
52102;SDS011;38101;53.126;6.878;2023-12-20T19:45:50;3.75;;;1.90;;
52102;SDS011;38101;53.126;6.878;2023-12-20T19:48:16;3.65;;;1.90;;
52102;SDS011;38101;53.126;6.878;2023-12-20T19:50:42;2.63;;;1.60;;
52102;SDS011;38101;53.126;6.878;2023-12-20T19:53:08;2.70;;;1.48;;
52102;SDS011;38101;53.126;6.878;2023-12-20T19:55:34;2.60;;;1.55;;
52102;SDS011;38101;53.126;6.878;2023-12-20T19:58:00;2.40;;;1.70;;
52102;SDS011;38101;53.126;6.878;2023-12-20T20:00:26;3.35;;;1.85;;
52102;SDS011;38101;53.126;6.878;2023-12-20T20:02:53;2.92;;;1.52;;
52102;SDS011;38101;53.126;6.878;2023-12-20T20:05:18;3.20;;;1.55;;
52102;SDS011;38101;53.126;6.878;2023-12-20T20:07:44;2.40;;;1.60;;
52102;SDS011;38101;53.126;6.878;2023-12-20T20:10:10;3.15;;;1.40;;
52102;SDS011;38101;53.126;6.878;2023-12-20T20:12:37;3.70;;;1.65;;
52102;SDS011;38101;53.126;6.878;2023-12-20T20:15:03;2.75;;;1.50;;
52102;SDS011;38101;53.126;6.878;2023-12-20T20:17:29;2.70;;;1.50;;
52102;SDS011;38101;53.126;6.878;2023-12-20T20:19:55;1.38;;;1.20;;
52102;SDS011;38101;53.126;6.878;2023-12-20T20:22:21;3.45;;;1.48;;
52102;SDS011;38101;53.126;6.878;2023-12-20T20:24:46;2.58;;;1.40;;
52102;SDS011;38101;53.126;6.878;2023-12-20T20:27:12;3.05;;;1.30;;
52102;SDS011;38101;53.126;6.878;2023-12-20T20:29:38;2.85;;;1.30;;
52102;SDS011;38101;53.126;6.878;2023-12-20T20:32:05;3.03;;;1.55;;
52102;SDS011;38101;53.126;6.878;2023-12-20T20:34:31;2.85;;;1.40;;
52102;SDS011;38101;53.126;6.878;2023-12-20T20:36:57;3.20;;;1.60;;
52102;SDS011;38101;53.126;6.878;2023-12-20T20:39:22;3.50;;;1.70;;
52102;SDS011;38101;53.126;6.878;2023-12-20T20:41:49;2.83;;;1.70;;
52102;SDS011;38101;53.126;6.878;2023-12-20T20:44:14;2.72;;;1.52;;
52102;SDS011;38101;53.126;6.878;2023-12-20T20:46:40;4.15;;;1.63;;
